Time;durP1;ratioP1;P1;durP2;ratioP2;P2;SDS_P1;SDS_P2;PMS_P1;PMS_P2;Temp;Humidity;BMP_temperature;BMP_pressure;BME280_temperature;BME280_humidity;BME280_pressure;Samples;Min_cycle;Max_cycle;Signal;HPM_P1;HPM_P2
2023/10/21 00:01:05;;;;;;;2.60;1.00;;;13.40;99.90;;;;;;5072006;28;20221;-59
2023/10/21 00:03:33;;;;;;;2.38;1.30;;;13.50;99.90;;;;;;5072047;28;20201;-59
2023/10/21 00:06:03;;;;;;;1.95;1.00;;;13.50;99.90;;;;;;5072386;28;20212;-57
2023/10/21 00:08:31;;;;;;;2.67;0.95;;;13.50;99.90;;;;;;5071931;28;20194;-59
2023/10/21 00:11:03;;;;;;;1.50;0.90;;;13.50;99.90;;;;;;5069424;28;20304;-60
2023/10/21 00:13:31;;;;;;;5.15;0.90;;;13.50;99.90;;;;;;5071489;28;20202;-62
2023/10/21 00:15:59;;;;;;;1.65;1.00;;;13.50;99.90;;;;;;5072392;28;20258;-60
2023/10/21 00:18:27;;;;;;;5.57;0.88;;;13.50;99.90;;;;;;5071957;28;20912;-60
2023/10/21 00:20:55;;;;;;;5.47;1.52;;;13.50;99.90;;;;;;5071964;28;20224;-60
2023/10/21 00:23:24;;;;;;;2.72;1.10;;;13.50;99.90;;;;;;5071577;28;20202;-60
2023/10/21 00:25:52;;;;;;;5.38;1.00;;;13.40;99.90;;;;;;5071965;28;20205;-60
2023/10/21 00:28:20;;;;;;;2.20;1.10;;;13.40;99.90;;;;;;5071682;28;20205;-60
2023/10/21 00:30:49;;;;;;;1.48;0.85;;;13.40;99.90;;;;;;5072103;28;20229;-59
2023/10/21 00:33:16;;;;;;;3.05;0.90;;;13.40;99.90;;;;;;5072080;28;20212;-60
2023/10/21 00:35:46;;;;;;;4.00;0.88;;;13.40;99.90;;;;;;5072354;28;20211;-60
2023/10/21 00:38:14;;;;;;;5.95;0.93;;;13.40;99.90;;;;;;5071579;28;20209;-57
2023/10/21 00:40:51;;;;;;;0.90;0.73;;;13.40;99.90;;;;;;5071718;28;20216;-60
2023/10/21 00:43:33;;;;;;;3.70;0.90;;;13.40;99.90;;;;;;5071628;28;20300;-60
2023/10/21 00:46:02;;;;;;;5.15;0.90;;;13.40;99.90;;;;;;5071618;28;20304;-60
2023/10/21 00:48:31;;;;;;;1.13;0.70;;;13.40;99.90;;;;;;5071492;28;20209;-59
2023/10/21 00:51:00;;;;;;;1.15;0.85;;;13.40;99.90;;;;;;5071305;28;20237;-60
2023/10/21 00:53:28;;;;;;;1.60;0.50;;;13.50;99.90;;;;;;5071975;28;20201;-58
2023/10/21 00:55:57;;;;;;;1.15;0.50;;;13.50;99.90;;;;;;5071589;28;20296;-58
2023/10/21 00:58:27;;;;;;;0.80;0.50;;;13.50;99.90;;;;;;5071306;28;20205;-60
2023/10/21 01:00:55;;;;;;;0.88;0.50;;;13.50;99.90;;;;;;5071022;28;20244;-58
2023/10/21 01:03:24;;;;;;;2.05;0.85;;;13.60;99.90;;;;;;5069984;28;20288;-59
2023/10/21 01:05:52;;;;;;;2.75;0.40;;;13.60;99.90;;;;;;5071361;28;20208;-58
2023/10/21 01:08:20;;;;;;;3.75;0.55;;;13.70;99.90;;;;;;5065337;28;20713;-57
2023/10/21 01:10:48;;;;;;;1.30;0.50;;;13.80;99.90;;;;;;5071290;28;20426;-59
2023/10/21 01:13:17;;;;;;;0.85;0.60;;;13.80;99.90;;;;;;5071184;28;20213;-60
2023/10/21 01:15:45;;;;;;;0.40;0.40;;;13.90;99.90;;;;;;5075034;28;20255;-59
2023/10/21 01:18:13;;;;;;;3.67;0.43;;;13.90;99.90;;;;;;5075293;28;20262;-59
2023/10/21 01:20:42;;;;;;;3.17;0.40;;;14.00;99.90;;;;;;5075095;28;20694;-60
2023/10/21 01:23:14;;;;;;;1.85;0.63;;;14.00;99.90;;;;;;5074592;28;20262;-59
2023/10/21 01:25:43;;;;;;;2.85;0.50;;;14.00;99.90;;;;;;5074892;28;20250;-60
2023/10/21 01:28:12;;;;;;;1.45;0.63;;;14.10;99.90;;;;;;5074854;28;20204;-61
2023/10/21 01:30:40;;;;;;;1.45;0.25;;;14.10;99.90;;;;;;5075381;28;20271;-59
2023/10/21 01:33:07;;;;;;;6.22;0.50;;;14.20;99.90;;;;;;5074967;28;20237;-59
2023/10/21 01:35:35;;;;;;;3.35;0.30;;;14.20;99.90;;;;;;5075792;28;20650;-60
2023/10/21 01:38:04;;;;;;;1.75;0.30;;;14.20;99.90;;;;;;5072448;28;20236;-59
2023/10/21 01:40:33;;;;;;;2.00;0.30;;;14.30;99.90;;;;;;5075790;28;20595;-59
2023/10/21 01:43:01;;;;;;;0.40;0.40;;;14.30;99.90;;;;;;5074953;28;20259;-60
2023/10/21 01:45:29;;;;;;;0.30;0.30;;;14.20;99.90;;;;;;5075449;28;20206;-60
2023/10/21 01:47:57;;;;;;;4.28;0.30;;;14.20;99.90;;;;;;5075112;28;20209;-59
2023/10/21 01:50:26;;;;;;;1.77;0.30;;;14.20;99.90;;;;;;5067605;28;20268;-60
2023/10/21 01:52:54;;;;;;;0.77;0.20;;;14.20;99.90;;;;;;5074985;28;20232;-58
2023/10/21 01:55:22;;;;;;;0.35;0.20;;;14.20;99.90;;;;;;5075137;28;20201;-59
2023/10/21 01:57:51;;;;;;;1.92;0.20;;;14.20;99.90;;;;;;5075206;28;20252;-59
2023/10/21 02:00:20;;;;;;;2.05;0.30;;;14.20;99.90;;;;;;5075424;28;20720;-60
2023/10/21 02:02:52;;;;;;;1.75;0.30;;;14.20;99.90;;;;;;5075554;28;20731;-59
2023/10/21 02:05:21;;;;;;;0.95;0.20;;;14.20;99.90;;;;;;5074807;28;20287;-60
2023/10/21 02:07:51;;;;;;;1.38;0.38;;;14.20;99.90;;;;;;5074648;28;20565;-60
2023/10/21 02:10:19;;;;;;;0.20;0.20;;;14.20;99.90;;;;;;5074852;28;20213;-60
2023/10/21 02:12:47;;;;;;;1.52;0.20;;;14.20;99.90;;;;;;5074369;28;20271;-60
2023/10/21 02:15:16;;;;;;;2.40;0.30;;;14.20;99.90;;;;;;5074479;28;20232;-60
2023/10/21 02:17:44;;;;;;;0.17;0.15;;;14.20;99.90;;;;;;5073190;28;20269;-59
2023/10/21 02:20:14;;;;;;;0.45;0.10;;;14.20;99.90;;;;;;5073620;28;20233;-60
2023/10/21 02:22:42;;;;;;;1.65;0.30;;;14.20;99.90;;;;;;5074003;28;20197;-60
2023/10/21 02:25:11;;;;;;;0.88;0.30;;;14.20;99.90;;;;;;5072669;28;20300;-60
2023/10/21 02:27:42;;;;;;;1.58;0.20;;;14.20;99.90;;;;;;5073298;28;20812;-60
2023/10/21 02:30:12;;;;;;;0.20;0.20;;;14.10;99.90;;;;;;5074042;28;20738;-60
2023/10/21 02:32:44;;;;;;;0.20;0.20;;;14.10;99.90;;;;;;5074846;28;20198;-60
2023/10/21 02:35:13;;;;;;;0.25;0.20;;;14.10;99.90;;;;;;5074409;28;20201;-58
2023/10/21 02:37:41;;;;;;;1.65;0.13;;;14.10;99.90;;;;;;5073994;28;20201;-59
2023/10/21 02:40:10;;;;;;;1.10;0.10;;;14.10;99.90;;;;;;5074249;28;20225;-60
2023/10/21 02:42:38;;;;;;;0.30;0.10;;;14.10;99.90;;;;;;5073811;28;20208;-59
2023/10/21 02:45:07;;;;;;;2.90;0.30;;;14.10;99.90;;;;;;5073086;28;20205;-60
2023/10/21 02:47:36;;;;;;;0.35;0.10;;;14.20;99.90;;;;;;5073630;28;20284;-60
2023/10/21 02:50:06;;;;;;;1.48;0.20;;;14.20;99.90;;;;;;5070497;28;20251;-60
2023/10/21 02:52:35;;;;;;;1.45;0.10;;;14.30;99.90;;;;;;5073757;28;20205;-59
2023/10/21 02:55:04;;;;;;;0.28;0.10;;;14.30;99.90;;;;;;5073676;28;20206;-59
2023/10/21 02:57:32;;;;;;;1.20;0.10;;;14.30;99.90;;;;;;5074103;28;20200;-60
2023/10/21 03:00:00;;;;;;;1.38;0.13;;;14.30;99.90;;;;;;5073687;28;20311;-60
2023/10/21 03:02:28;;;;;;;1.45;0.05;;;14.30;99.90;;;;;;5065446;28;20201;-60
2023/10/21 03:04:56;;;;;;;1.02;0.08;;;14.40;99.90;;;;;;5073069;28;20258;-60
2023/10/21 03:07:25;;;;;;;0.52;0.10;;;14.40;99.90;;;;;;5073444;28;20201;-60
2023/10/21 03:09:53;;;;;;;1.10;0.10;;;14.40;99.90;;;;;;5073207;28;20233;-59
2023/10/21 03:12:21;;;;;;;1.65;0.10;;;14.50;99.90;;;;;;5072645;28;20248;-58
2023/10/21 03:14:49;;;;;;;1.00;0.10;;;14.50;99.90;;;;;;5072498;28;20213;-60
2023/10/21 03:17:17;;;;;;;0.28;0.10;;;14.50;99.90;;;;;;5071449;28;20693;-60
2023/10/21 03:19:45;;;;;;;0.43;0.00;;;14.50;99.90;;;;;;5072522;28;20362;-59
2023/10/21 03:22:13;;;;;;;1.02;0.10;;;14.50;99.90;;;;;;5071760;28;20298;-59
2023/10/21 03:24:42;;;;;;;1.45;0.20;;;14.50;99.90;;;;;;5072353;28;20209;-60
2023/10/21 03:27:10;;;;;;;1.17;0.08;;;14.50;99.90;;;;;;5071963;28;20209;-59
2023/10/21 03:29:38;;;;;;;1.95;0.10;;;14.40;99.90;;;;;;5071862;28;20220;-59
2023/10/21 03:32:07;;;;;;;0.10;0.10;;;14.40;99.90;;;;;;5071987;28;20244;-57
2023/10/21 03:34:35;;;;;;;4.18;0.10;;;14.40;99.90;;;;;;5072018;28;20662;-60
2023/10/21 03:37:03;;;;;;;0.03;0.03;;;14.40;99.90;;;;;;5071746;28;20291;-60
2023/10/21 03:39:32;;;;;;;0.38;0.10;;;14.40;99.90;;;;;;5067984;28;20253;-60
2023/10/21 03:42:01;;;;;;;0.22;0.10;;;14.40;99.90;;;;;;5071807;28;20243;-60
2023/10/21 03:44:29;;;;;;;0.15;0.15;;;14.40;99.90;;;;;;5071950;28;20229;-59
2023/10/21 03:46:57;;;;;;;1.02;0.20;;;14.40;99.90;;;;;;5071738;28;20578;-60
2023/10/21 03:49:25;;;;;;;1.85;0.20;;;14.40;99.90;;;;;;5071228;28;20212;-60
2023/10/21 03:51:52;;;;;;;2.40;0.20;;;14.40;99.90;;;;;;5071903;28;20205;-60
2023/10/21 03:54:20;;;;;;;0.77;0.25;;;14.40;99.90;;;;;;5071737;28;20271;-59
2023/10/21 03:56:49;;;;;;;1.02;0.20;;;14.40;99.90;;;;;;5072122;28;20201;-59
2023/10/21 03:59:18;;;;;;;1.17;0.30;;;14.30;99.90;;;;;;5071529;28;20679;-58
2023/10/21 04:01:46;;;;;;;0.68;0.20;;;14.30;99.90;;;;;;5072328;28;20214;-60
2023/10/21 04:04:14;;;;;;;0.32;0.15;;;14.30;99.90;;;;;;5071807;28;20294;-60
2023/10/21 04:06:42;;;;;;;3.13;0.17;;;14.30;99.90;;;;;;5071519;28;20206;-60
2023/10/21 04:09:11;;;;;;;0.88;0.30;;;14.30;99.90;;;;;;5071416;28;20678;-60
2023/10/21 04:11:39;;;;;;;0.35;0.20;;;14.30;99.90;;;;;;5071682;28;20551;-60
2023/10/21 04:14:07;;;;;;;0.22;0.10;;;14.30;99.90;;;;;;5071185;28;20719;-60
2023/10/21 04:16:42;;;;;;;1.23;0.20;;;14.30;99.90;;;;;;5071642;28;20292;-60
2023/10/21 04:19:11;;;;;;;1.45;0.20;;;14.30;99.90;;;;;;5071186;28;20670;-60
2023/10/21 04:21:40;;;;;;;0.38;0.20;;;14.30;99.90;;;;;;5071561;28;20225;-60
2023/10/21 04:24:08;;;;;;;0.10;0.10;;;14.30;99.90;;;;;;5069716;28;20201;-59
2023/10/21 04:26:36;;;;;;;1.02;0.30;;;14.20;99.90;;;;;;5063709;28;20251;-60
2023/10/21 04:29:05;;;;;;;1.45;0.20;;;14.20;99.90;;;;;;5071243;28;20258;-60
2023/10/21 04:31:34;;;;;;;1.65;0.20;;;14.10;99.90;;;;;;5067539;28;20706;-60
2023/10/21 04:34:04;;;;;;;0.50;0.22;;;14.10;99.90;;;;;;5071224;28;20202;-60
2023/10/21 04:36:32;;;;;;;0.20;0.20;;;14.10;99.90;;;;;;5071291;28;20255;-59
2023/10/21 04:39:00;;;;;;;3.00;0.20;;;14.00;99.90;;;;;;5071092;28;20318;-60
2023/10/21 04:41:28;;;;;;;0.20;0.20;;;14.00;99.90;;;;;;5070896;28;20378;-60
2023/10/21 04:43:56;;;;;;;0.47;0.30;;;14.00;99.90;;;;;;5070895;28;20736;-60
2023/10/21 04:46:24;;;;;;;4.22;0.30;;;14.00;99.90;;;;;;5070941;28;20205;-60
2023/10/21 04:48:52;;;;;;;0.50;0.30;;;14.00;99.90;;;;;;5070041;28;20209;-60
2023/10/21 04:51:22;;;;;;;0.30;0.30;;;13.90;99.90;;;;;;5070759;28;20260;-60
2023/10/21 04:53:50;;;;;;;1.85;0.30;;;13.90;99.90;;;;;;5070531;28;20209;-58
2023/10/21 04:56:18;;;;;;;0.65;0.20;;;13.90;99.90;;;;;;5071229;28;20206;-59
2023/10/21 04:58:46;;;;;;;4.13;0.30;;;13.80;99.90;;;;;;5068582;28;20236;-60
2023/10/21 05:01:16;;;;;;;0.20;0.20;;;13.80;99.90;;;;;;5065717;28;20312;-58
2023/10/21 05:03:44;;;;;;;0.35;0.28;;;13.80;99.90;;;;;;5069918;28;20205;-59
2023/10/21 05:06:12;;;;;;;2.97;0.32;;;13.80;99.90;;;;;;5070512;28;20205;-59
2023/10/21 05:08:41;;;;;;;0.80;0.30;;;13.80;99.90;;;;;;5070736;28;20258;-60
2023/10/21 05:11:09;;;;;;;0.70;0.30;;;13.80;99.90;;;;;;5070995;28;20220;-60
2023/10/21 05:13:37;;;;;;;0.98;0.32;;;13.70;99.90;;;;;;5066804;28;20255;-60
2023/10/21 05:16:05;;;;;;;1.45;0.30;;;13.70;99.90;;;;;;5070623;28;20284;-60
2023/10/21 05:18:33;;;;;;;5.22;0.40;;;13.70;99.90;;;;;;5070498;28;20205;-59
2023/10/21 05:21:06;;;;;;;1.17;0.30;;;13.70;99.90;;;;;;5070110;28;20239;-60
2023/10/21 05:23:34;;;;;;;1.40;0.40;;;13.70;99.90;;;;;;5070395;28;20203;-60
2023/10/21 05:26:03;;;;;;;3.83;0.50;;;13.70;99.90;;;;;;5066017;28;20209;-60
2023/10/21 05:28:31;;;;;;;1.02;0.30;;;13.70;99.90;;;;;;5070158;28;20252;-59
2023/10/21 05:30:59;;;;;;;4.13;0.40;;;13.70;99.90;;;;;;5067509;28;20702;-60
2023/10/21 05:33:27;;;;;;;0.73;0.40;;;13.60;99.90;;;;;;5069417;28;20217;-59
2023/10/21 05:35:58;;;;;;;1.88;0.30;;;13.60;99.90;;;;;;5070556;28;20202;-60
2023/10/21 05:38:26;;;;;;;0.70;0.43;;;13.60;99.90;;;;;;5070450;28;20572;-60
2023/10/21 05:40:54;;;;;;;2.45;0.40;;;13.60;99.90;;;;;;5070721;28;20315;-60
2023/10/21 05:43:23;;;;;;;0.98;0.30;;;13.60;99.90;;;;;;5070926;28;20260;-60
2023/10/21 05:45:51;;;;;;;3.78;0.30;;;13.50;99.90;;;;;;5071219;28;20706;-59
2023/10/21 05:48:19;;;;;;;2.15;0.43;;;13.50;99.90;;;;;;5070854;28;20201;-60
2023/10/21 05:50:47;;;;;;;1.23;0.40;;;13.50;99.90;;;;;;5086510;22;20229;-60
2023/10/21 05:53:15;;;;;;;2.90;0.30;;;13.50;99.90;;;;;;5037827;28;20207;-60
2023/10/21 05:55:43;;;;;;;0.52;0.40;;;13.60;99.90;;;;;;5036157;28;20260;-60
2023/10/21 05:58:11;;;;;;;1.50;0.40;;;13.60;99.90;;;;;;5038629;28;20483;-60
2023/10/21 06:00:40;;;;;;;3.22;0.45;;;13.60;99.90;;;;;;5043570;28;20245;-59
2023/10/21 06:03:08;;;;;;;1.38;0.32;;;13.60;99.90;;;;;;5051936;28;20229;-59
2023/10/21 06:05:36;;;;;;;1.30;0.25;;;13.70;99.90;;;;;;5053563;28;20210;-59
2023/10/21 06:08:05;;;;;;;0.85;0.30;;;13.70;99.90;;;;;;5048904;28;20201;-59
2023/10/21 06:10:34;;;;;;;0.30;0.25;;;13.70;99.90;;;;;;5052475;28;20261;-59
2023/10/21 06:13:02;;;;;;;0.60;0.20;;;13.70;99.90;;;;;;5051083;28;20206;-59
2023/10/21 06:15:30;;;;;;;1.85;0.35;;;13.70;99.90;;;;;;5049116;28;20271;-59
2023/10/21 06:17:59;;;;;;;0.63;0.40;;;13.80;99.90;;;;;;5050352;28;20210;-59
2023/10/21 06:20:27;;;;;;;0.25;0.25;;;13.80;99.90;;;;;;5047103;28;20304;-59
2023/10/21 06:22:55;;;;;;;0.65;0.25;;;13.80;99.90;;;;;;5048410;28;20787;-59
2023/10/21 06:25:24;;;;;;;0.30;0.30;;;13.80;99.90;;;;;;5048417;28;20237;-59
2023/10/21 06:27:51;;;;;;;0.77;0.30;;;13.80;99.90;;;;;;5048248;28;20245;-61
2023/10/21 06:30:19;;;;;;;0.47;0.20;;;13.90;99.90;;;;;;5052032;28;20222;-58
2023/10/21 06:32:47;;;;;;;0.13;0.13;;;13.90;99.90;;;;;;5047039;28;20205;-59
2023/10/21 06:35:17;;;;;;;0.20;0.10;;;13.90;99.90;;;;;;5047952;28;20206;-59
2023/10/21 06:37:45;;;;;;;0.10;0.10;;;13.90;99.90;;;;;;5046883;28;20293;-59
2023/10/21 06:40:13;;;;;;;0.30;0.20;;;14.00;99.90;;;;;;5044580;28;20580;-59
2023/10/21 06:42:58;;;;;;;2.20;0.17;;;14.00;99.90;;;;;;5048742;28;20257;-59
2023/10/21 06:45:26;;;;;;;1.23;0.28;;;14.00;99.90;;;;;;5047662;28;20631;-58
2023/10/21 06:47:55;;;;;;;1.45;0.13;;;14.00;99.90;;;;;;5045390;28;20206;-58
2023/10/21 06:50:24;;;;;;;0.35;0.30;;;14.00;99.90;;;;;;5045003;28;20230;-58
2023/10/21 06:52:52;;;;;;;1.42;0.20;;;14.00;99.90;;;;;;5047413;28;20202;-59
2023/10/21 06:55:21;;;;;;;0.75;0.30;;;14.00;99.90;;;;;;5047350;28;20855;-59
2023/10/21 06:57:49;;;;;;;0.50;0.20;;;14.00;99.90;;;;;;5049801;28;20233;-59
2023/10/21 07:00:17;;;;;;;0.77;0.30;;;14.10;99.90;;;;;;5044061;28;20723;-59
2023/10/21 07:02:45;;;;;;;3.92;0.28;;;14.10;99.90;;;;;;5047511;28;20228;-59
2023/10/21 07:05:14;;;;;;;0.63;0.30;;;14.10;99.90;;;;;;5046972;28;20206;-58
2023/10/21 07:07:43;;;;;;;0.63;0.20;;;14.10;99.90;;;;;;5051821;28;20201;-59
2023/10/21 07:10:11;;;;;;;1.55;0.40;;;14.10;99.90;;;;;;5043773;28;20645;-59
2023/10/21 07:12:39;;;;;;;0.10;0.10;;;14.10;99.90;;;;;;5043842;28;20733;-59
2023/10/21 07:15:09;;;;;;;0.20;0.20;;;14.10;99.90;;;;;;5046545;28;20210;-58
2023/10/21 07:17:37;;;;;;;1.65;0.55;;;14.10;99.90;;;;;;5045557;28;20238;-58
2023/10/21 07:20:06;;;;;;;1.27;0.32;;;14.30;99.90;;;;;;5043830;28;20226;-58
2023/10/21 07:22:36;;;;;;;2.47;0.20;;;14.50;99.90;;;;;;5045553;28;20769;-60
2023/10/21 07:25:06;;;;;;;0.75;0.28;;;14.90;99.90;;;;;;5046995;28;20288;-59
2023/10/21 07:27:35;;;;;;;0.20;0.20;;;14.90;99.90;;;;;;5045329;28;20210;-59
2023/10/21 07:30:04;;;;;;;0.10;0.10;;;14.90;99.90;;;;;;5039982;28;20319;-59
2023/10/21 07:32:32;;;;;;;1.67;0.30;;;14.80;99.90;;;;;;5042147;28;20534;-59
2023/10/21 07:34:59;;;;;;;0.20;0.10;;;14.70;99.90;;;;;;5044162;28;20214;-58
2023/10/21 07:37:27;;;;;;;0.10;0.10;;;14.70;99.90;;;;;;5040024;28;20714;-59
2023/10/21 07:39:58;;;;;;;0.52;0.30;;;14.80;99.90;;;;;;5049645;28;20241;-60
2023/10/21 07:42:27;;;;;;;1.40;0.20;;;14.90;99.90;;;;;;5049265;28;20257;-60
2023/10/21 07:44:55;;;;;;;0.98;0.30;;;15.00;99.90;;;;;;5046539;28;20209;-59
2023/10/21 07:47:23;;;;;;;0.25;0.20;;;15.00;99.90;;;;;;5047969;28;20210;-59
2023/10/21 07:49:51;;;;;;;0.63;0.20;;;15.00;99.90;;;;;;5044243;28;20202;-59
2023/10/21 07:52:22;;;;;;;0.70;0.20;;;15.00;99.90;;;;;;5048543;28;20205;-59
2023/10/21 07:54:50;;;;;;;0.32;0.20;;;14.90;99.90;;;;;;5051500;28;20283;-59
2023/10/21 07:57:18;;;;;;;3.47;0.20;;;14.90;99.90;;;;;;5051613;28;20197;-59
2023/10/21 07:59:47;;;;;;;0.52;0.10;;;14.80;99.90;;;;;;5040868;28;20202;-59
2023/10/21 08:02:15;;;;;;;1.65;0.20;;;14.80;99.90;;;;;;5047657;28;20230;-59
2023/10/21 08:04:44;;;;;;;1.95;0.20;;;14.80;99.90;;;;;;5046045;28;20205;-59
2023/10/21 08:07:12;;;;;;;0.68;0.20;;;14.80;99.90;;;;;;5046685;28;20251;-59
2023/10/21 08:09:40;;;;;;;2.30;0.20;;;14.80;99.90;;;;;;5046091;28;20213;-59
2023/10/21 08:12:09;;;;;;;3.28;0.52;;;14.80;99.90;;;;;;5051324;28;20226;-60
2023/10/21 08:14:40;;;;;;;0.52;0.22;;;14.80;99.90;;;;;;5047029;28;20204;-59
2023/10/21 08:17:09;;;;;;;0.30;0.20;;;14.90;99.90;;;;;;5047040;28;20206;-59
2023/10/21 08:19:37;;;;;;;0.80;0.30;;;14.90;99.90;;;;;;5042310;28;20212;-59
2023/10/21 08:22:05;;;;;;;2.17;0.20;;;14.90;99.90;;;;;;5051453;28;20236;-59
2023/10/21 08:24:34;;;;;;;1.45;0.30;;;15.00;99.90;;;;;;5046497;28;20295;-61
2023/10/21 08:27:04;;;;;;;0.88;0.30;;;15.00;99.90;;;;;;5040357;28;20683;-59
2023/10/21 08:29:32;;;;;;;2.03;0.30;;;15.10;99.90;;;;;;5042314;28;20197;-59
2023/10/21 08:32:00;;;;;;;3.35;0.80;;;15.10;99.90;;;;;;5043472;28;20316;-60
2023/10/21 08:34:29;;;;;;;3.67;0.40;;;15.30;99.90;;;;;;5050527;28;20256;-59
2023/10/21 08:36:57;;;;;;;3.65;0.60;;;15.40;99.90;;;;;;5047175;28;20217;-59
2023/10/21 08:39:24;;;;;;;2.30;0.30;;;15.50;99.90;;;;;;5044635;28;20679;-59
2023/10/21 08:41:53;;;;;;;1.33;0.35;;;15.50;99.90;;;;;;5046545;28;20321;-59
2023/10/21 08:44:21;;;;;;;3.35;0.40;;;15.50;99.90;;;;;;5039684;28;20229;-59
2023/10/21 08:46:49;;;;;;;1.65;0.45;;;15.60;99.90;;;;;;5041305;28;20556;-59
2023/10/21 08:49:17;;;;;;;1.83;0.40;;;15.60;99.90;;;;;;5047706;28;20687;-59
2023/10/21 08:51:46;;;;;;;1.98;0.50;;;15.70;99.90;;;;;;5043266;28;20261;-59
2023/10/21 08:54:14;;;;;;;4.00;0.40;;;15.80;99.90;;;;;;5044898;28;20198;-59
2023/10/21 08:56:42;;;;;;;0.68;0.25;;;15.80;99.90;;;;;;5046376;28;20205;-59
2023/10/21 08:59:10;;;;;;;3.97;0.52;;;15.90;99.90;;;;;;5045943;28;20667;-59
2023/10/21 09:01:38;;;;;;;1.60;0.70;;;16.00;99.90;;;;;;5039450;28;20223;-60
2023/10/21 09:04:11;;;;;;;1.23;0.30;;;16.00;99.90;;;;;;5043325;28;20590;-60
2023/10/21 09:06:55;;;;;;;4.15;0.60;;;16.20;99.90;;;;;;5051160;28;20213;-59
2023/10/21 09:09:23;;;;;;;2.70;0.50;;;16.40;99.90;;;;;;5041310;28;20233;-59
2023/10/21 09:12:03;;;;;;;2.92;0.52;;;16.60;99.90;;;;;;5045677;28;20245;-60
2023/10/21 09:14:32;;;;;;;1.48;0.40;;;16.70;99.90;;;;;;5047412;28;20216;-59
2023/10/21 09:17:00;;;;;;;2.30;0.40;;;16.80;99.90;;;;;;5049285;28;20285;-59
2023/10/21 09:19:28;;;;;;;1.52;0.30;;;17.00;99.90;;;;;;5043716;28;20280;-60
2023/10/21 09:21:58;;;;;;;2.58;0.40;;;17.20;99.90;;;;;;5044213;28;20272;-59
2023/10/21 09:24:25;;;;;;;1.25;0.30;;;17.40;99.90;;;;;;5043738;28;20218;-59
2023/10/21 09:26:53;;;;;;;1.80;0.60;;;17.60;99.90;;;;;;5044184;28;20667;-59
2023/10/21 09:29:22;;;;;;;1.02;0.40;;;17.80;99.90;;;;;;5043522;28;20210;-59
2023/10/21 09:31:51;;;;;;;3.40;0.40;;;18.00;99.90;;;;;;5047155;28;20234;-59
2023/10/21 09:34:25;;;;;;;1.08;0.30;;;18.00;99.90;;;;;;5040477;28;20207;-59
2023/10/21 09:36:54;;;;;;;1.40;0.60;;;18.20;99.90;;;;;;5046741;28;20210;-59
2023/10/21 09:39:24;;;;;;;4.15;0.52;;;18.40;99.90;;;;;;5046754;28;20201;-59
2023/10/21 09:41:52;;;;;;;1.42;0.50;;;18.60;99.90;;;;;;5050322;28;20788;-59
2023/10/21 09:44:20;;;;;;;3.00;0.50;;;18.80;99.90;;;;;;5044122;28;20672;-59
2023/10/21 09:46:49;;;;;;;0.80;0.50;;;18.90;99.90;;;;;;5047166;28;20241;-59
2023/10/21 09:49:17;;;;;;;1.50;0.38;;;19.00;99.90;;;;;;5047063;28;20210;-59
2023/10/21 09:51:47;;;;;;;1.95;0.40;;;19.20;99.90;;;;;;5046071;28;20316;-59
2023/10/21 09:54:16;;;;;;;1.20;0.50;;;19.30;99.90;;;;;;5049360;28;20241;-59
2023/10/21 09:56:46;;;;;;;3.03;0.40;;;19.30;99.90;;;;;;5054287;28;20206;-59
2023/10/21 09:59:14;;;;;;;1.73;0.32;;;19.70;99.90;;;;;;5046812;28;20275;-59
2023/10/21 10:01:42;;;;;;;1.85;0.43;;;20.20;99.90;;;;;;5046250;28;20701;-61
2023/10/21 10:04:10;;;;;;;2.45;0.40;;;20.60;99.90;;;;;;5043383;28;20221;-60
2023/10/21 10:06:39;;;;;;;3.03;0.50;;;21.00;99.90;;;;;;5045273;28;20285;-59
2023/10/21 10:09:12;;;;;;;0.35;0.30;;;21.40;99.90;;;;;;5046666;28;20220;-60
2023/10/21 10:11:42;;;;;;;0.38;0.30;;;21.40;99.90;;;;;;5046430;28;20260;-59
2023/10/21 10:14:11;;;;;;;1.58;0.45;;;20.90;99.90;;;;;;5043283;28;20656;-59
2023/10/21 10:16:41;;;;;;;3.83;0.63;;;20.70;99.90;;;;;;5045078;28;20272;-59
2023/10/21 10:19:10;;;;;;;2.10;0.57;;;20.40;99.90;;;;;;5046468;28;20210;-59
2023/10/21 10:21:37;;;;;;;0.82;0.40;;;19.70;99.90;;;;;;5046774;28;20225;-59
2023/10/21 10:24:06;;;;;;;1.70;0.50;;;19.00;99.90;;;;;;5049383;28;20304;-59
2023/10/21 10:26:36;;;;;;;4.78;0.55;;;18.70;99.90;;;;;;5044118;28;20586;-59
2023/10/21 10:29:25;;;;;;;2.38;0.43;;;19.20;99.90;;;;;;5046052;28;20206;-59
2023/10/21 10:32:15;;;;;;;0.95;0.40;;;19.90;99.90;;;;;;5051961;28;20237;-59
2023/10/21 10:34:52;;;;;;;1.80;0.63;;;20.40;99.90;;;;;;5045944;28;20195;-58
2023/10/21 10:37:30;;;;;;;1.17;0.40;;;20.40;99.90;;;;;;5046428;28;20212;-59
2023/10/21 10:39:58;;;;;;;1.13;0.40;;;19.80;99.90;;;;;;5048784;28;20293;-59
2023/10/21 10:42:28;;;;;;;1.92;0.40;;;19.40;99.90;;;;;;5043148;28;20229;-59
2023/10/21 10:44:57;;;;;;;1.42;0.40;;;19.80;99.90;;;;;;5038131;28;20232;-59
2023/10/21 10:47:26;;;;;;;2.40;0.60;;;20.30;99.90;;;;;;5045208;28;20296;-59
2023/10/21 10:49:55;;;;;;;4.25;0.52;;;20.10;99.90;;;;;;5048678;28;20738;-58
2023/10/21 10:52:31;;;;;;;4.75;0.47;;;20.00;99.90;;;;;;5042410;28;20226;-59
2023/10/21 10:54:59;;;;;;;1.55;0.52;;;20.50;99.90;;;;;;5038345;28;20289;-59
2023/10/21 10:57:28;;;;;;;1.77;0.55;;;21.10;99.90;;;;;;5045896;28;20797;-59
2023/10/21 10:59:58;;;;;;;2.47;0.52;;;21.20;99.90;;;;;;5048449;28;20211;-59
2023/10/21 11:02:28;;;;;;;2.75;0.55;;;20.70;99.90;;;;;;5042453;28;20729;-60
2023/10/21 11:04:58;;;;;;;1.02;0.50;;;20.20;99.90;;;;;;5037284;28;20733;-59
2023/10/21 11:07:30;;;;;;;2.53;0.75;;;19.90;99.90;;;;;;5045768;28;20209;-59
2023/10/21 11:10:01;;;;;;;3.22;0.60;;;19.60;99.90;;;;;;5048582;28;20664;-59
2023/10/21 11:12:30;;;;;;;1.00;0.40;;;19.50;99.90;;;;;;5042436;28;20240;-59
2023/10/21 11:15:01;;;;;;;3.63;0.40;;;19.70;99.90;;;;;;5037158;28;20237;-60
2023/10/21 11:17:29;;;;;;;2.35;0.60;;;20.00;99.90;;;;;;5045339;28;20209;-60
2023/10/21 11:19:57;;;;;;;0.75;0.40;;;20.10;99.90;;;;;;5047840;28;20209;-59
2023/10/21 11:22:28;;;;;;;3.22;0.50;;;19.70;99.90;;;;;;5040987;28;20202;-59
2023/10/21 11:24:56;;;;;;;2.92;0.55;;;19.40;99.90;;;;;;5041743;28;20249;-60
2023/10/21 11:27:24;;;;;;;1.55;0.50;;;19.50;99.90;;;;;;5044663;28;20233;-59
2023/10/21 11:29:52;;;;;;;3.85;0.60;;;19.70;99.90;;;;;;5047207;28;20730;-60
2023/10/21 11:32:27;;;;;;;4.45;0.50;;;20.30;99.90;;;;;;5047958;28;20249;-60
2023/10/21 11:34:55;;;;;;;3.80;0.73;;;20.50;99.90;;;;;;5049186;28;20204;-59
2023/10/21 11:37:23;;;;;;;3.75;0.60;;;20.80;99.90;;;;;;5044656;28;20287;-59
2023/10/21 11:39:51;;;;;;;5.97;0.70;;;21.00;99.90;;;;;;5039057;28;20872;-60
2023/10/21 11:42:19;;;;;;;4.65;0.63;;;20.70;99.90;;;;;;5047440;28;20289;-60
2023/10/21 11:44:56;;;;;;;5.05;0.70;;;20.90;99.90;;;;;;5050768;28;20225;-60
2023/10/21 11:47:26;;;;;;;4.60;0.40;;;21.20;99.90;;;;;;5044771;28;20193;-60
2023/10/21 11:49:54;;;;;;;2.22;0.50;;;21.00;99.90;;;;;;5044627;28;20216;-59
2023/10/21 11:52:22;;;;;;;2.10;0.50;;;20.50;99.90;;;;;;5051556;28;20211;-60
2023/10/21 11:55:20;;;;;;;3.40;0.65;;;20.40;99.90;;;;;;5051218;28;20256;-60
2023/10/21 12:18:12;;;;;;;2.90;0.73;;;20.30;99.90;;;;;;4997924;28;20672;-58
2023/10/21 12:20:52;;;;;;;0.90;0.50;;;20.10;99.90;;;;;;5036069;28;20221;-58
2023/10/21 12:23:48;;;;;;;2.85;0.70;;;19.90;99.90;;;;;;5051517;28;20288;-58
2023/10/21 12:26:40;;;;;;;2.63;0.50;;;19.70;99.90;;;;;;5045849;28;20384;-58
2023/10/21 12:32:31;;;;;;;5.10;0.63;;;19.70;99.90;;;;;;5043364;28;20645;-58
2023/10/21 12:40:31;;;;;;;0.82;0.50;;;19.20;99.90;;;;;;5027633;28;20275;-58
2023/10/21 12:46:09;;;;;;;0.73;0.40;;;19.30;99.90;;;;;;5008934;28;20281;-58
2023/10/21 12:48:36;;;;;;;1.00;0.70;;;19.50;99.90;;;;;;4992161;28;20257;-58
2023/10/21 12:51:07;;;;;;;3.35;0.77;;;19.70;99.90;;;;;;5023080;28;20233;-58
2023/10/21 12:53:37;;;;;;;1.60;0.47;;;19.60;99.90;;;;;;5051136;28;20201;-58
2023/10/21 12:56:06;;;;;;;3.63;0.50;;;19.40;99.90;;;;;;5043364;28;20697;-58
2023/10/21 12:58:34;;;;;;;2.17;0.60;;;19.30;99.90;;;;;;5050576;28;20263;-59
2023/10/21 13:01:04;;;;;;;2.80;0.55;;;19.20;99.90;;;;;;5034909;28;20217;-58
2023/10/21 13:03:32;;;;;;;2.15;0.60;;;19.40;99.90;;;;;;5050618;28;20685;-58
2023/10/21 13:06:00;;;;;;;1.92;0.50;;;19.90;99.90;;;;;;5051216;28;20214;-58
2023/10/21 13:08:28;;;;;;;1.35;0.50;;;20.40;99.90;;;;;;5050551;28;20255;-58
2023/10/21 13:10:57;;;;;;;1.45;0.55;;;20.70;99.90;;;;;;5053596;28;21645;-58
2023/10/21 13:13:27;;;;;;;6.63;0.70;;;20.90;99.90;;;;;;5054826;28;20252;-58
2023/10/21 13:15:55;;;;;;;1.65;0.50;;;21.30;99.90;;;;;;5054957;28;20251;-58
2023/10/21 13:18:23;;;;;;;0.95;0.50;;;21.40;99.90;;;;;;5054993;28;20722;-58
2023/10/21 13:20:52;;;;;;;1.50;0.40;;;21.00;99.90;;;;;;5055203;28;20308;-58
2023/10/21 13:23:20;;;;;;;6.13;0.40;;;21.00;99.90;;;;;;5054560;28;20232;-58
2023/10/21 13:25:48;;;;;;;1.20;0.50;;;21.30;99.90;;;;;;5054572;28;20701;-58
2023/10/21 13:28:17;;;;;;;1.58;0.60;;;21.50;99.90;;;;;;5054467;28;20251;-58
2023/10/21 13:30:47;;;;;;;0.98;0.50;;;21.80;99.90;;;;;;5054226;28;20217;-59